Terminal Aerodrome Forecast
Issued by NWS

Home | Current Version | Previous Version | Text Only | Print | Product List | Glossary On
Versions: 1 2 3 4 5 6 7 8 9 10 11 12 13 14 15 16 17 18 19
000
FTUS43 KDTX 010531
TAFMBS
TAF
KMBS 010531Z 0106/0206 00000KT 4SM BR SKC
     FM011100 00000KT 1SM BR SKC
     FM011300 23008KT P6SM SCT035
     FM012000 21008KT P6SM BKN045=

USA.gov is the U.S. government's official web portal to all federal, state and local government web resources and services.